Hauptseite
METAR-TAF:

METAR-TAF

Flughäfen :

Flughafen Marka International

Amman, Jordanien

Breite: 31-59N, Länge: 035-59E, Höhe: 767 m

Beobachtung

Neuester Wetterbericht von vor 56 Minuten, um 07:00 UTC
Wind 3 kt aus Ost/Nordost
Temperatur 29°C
Luftfeuchtigkeit 27%
Luftdruck 1013 hPa
Sichtweite: 4000 m
trockener Dunst

METAR: OJAM 270700Z 06003KT 4000 HZ NSC 29/08 Q1013 NOSIG

Zeit: 10:56 (07:56 UTC)

Prognose

Neuester Wetterbericht von vor 2 Stunden und 36 Minuten, um 05:20 UTC
Gültige Prognose vom 27 um 06 UTC bis 28 um 12 UTC
Wind kt aus Nord
Sichtweite: 3000 m
trockener Dunst
Übergehend zu
vom 27 um 12 UTC bis 27 um 14 UTC
Wind 10 kt aus West
Sichtweite: 5000 m
trockener Dunst

TAF: OJAM 270520Z 2706/2812 00000KT 3000 HZ NSC BECMG 2712/2714 28010KT 5000 HZ

Wetterbeobachtungen und Prognosen von mehr als 4000 Flughäfen (METAR und TAF Bericht).

Die verfügbaren Stationen werden durch gelbe und rote Markierungen auf der Karte dargestellt.

Führen Sie die Maus auf sie, um den Namen der Station zu sehen.

Darauf klicken, um die Beobachtung von Wetterbeobachtungen und Prognosen zu sehen.

Um die Karte zu ändern : klicken Sie auf den grünen Tasten mit einem schwarzen Kreuz Zum Vergrößern, auf den grünen Button mit einem Gedankenstrich zu verkleinern, oder auf die grünen Pfeile für benachbarte Karten.


METAR-TAF: